sensor_id;sensor_type;location;lat;lon;timestamp;P1;durP1;ratioP1;P2;durP2;ratioP2
8640;SDS011;4358;42.100;25.222;2022-07-21T00:00:00;3.80;;;3.30;;
8640;SDS011;4358;42.100;25.222;2022-07-21T00:02:29;7.93;;;3.33;;
8640;SDS011;4358;42.100;25.222;2022-07-21T00:04:56;4.57;;;3.90;;
8640;SDS011;4358;42.100;25.222;2022-07-21T00:07:23;7.70;;;6.03;;
8640;SDS011;4358;42.100;25.222;2022-07-21T00:09:50;8.40;;;7.60;;
8640;SDS011;4358;42.100;25.222;2022-07-21T00:12:17;6.60;;;5.93;;
8640;SDS011;4358;42.100;25.222;2022-07-21T00:14:43;12.80;;;11.77;;
8640;SDS011;4358;42.100;25.222;2022-07-21T00:17:12;17.03;;;15.23;;
8640;SDS011;4358;42.100;25.222;2022-07-21T00:19:41;12.43;;;11.33;;
8640;SDS011;4358;42.100;25.222;2022-07-21T00:22:08;7.17;;;5.60;;
8640;SDS011;4358;42.100;25.222;2022-07-21T00:24:35;4.07;;;3.10;;
8640;SDS011;4358;42.100;25.222;2022-07-21T00:27:02;5.80;;;3.33;;
8640;SDS011;4358;42.100;25.222;2022-07-21T00:29:29;2.90;;;2.70;;
8640;SDS011;4358;42.100;25.222;2022-07-21T00:31:56;3.70;;;2.73;;
8640;SDS011;4358;42.100;25.222;2022-07-21T00:34:26;3.30;;;3.10;;
8640;SDS011;4358;42.100;25.222;2022-07-21T00:36:53;4.40;;;4.00;;
8640;SDS011;4358;42.100;25.222;2022-07-21T00:39:20;9.43;;;8.53;;
8640;SDS011;4358;42.100;25.222;2022-07-21T00:41:47;8.63;;;7.83;;
8640;SDS011;4358;42.100;25.222;2022-07-21T00:44:20;9.77;;;8.20;;
8640;SDS011;4358;42.100;25.222;2022-07-21T00:46:48;9.07;;;7.50;;
8640;SDS011;4358;42.100;25.222;2022-07-21T00:49:15;8.63;;;7.73;;
8640;SDS011;4358;42.100;25.222;2022-07-21T00:51:44;11.53;;;9.30;;
8640;SDS011;4358;42.100;25.222;2022-07-21T00:54:10;13.87;;;12.17;;
8640;SDS011;4358;42.100;25.222;2022-07-21T00:56:38;14.30;;;11.13;;
8640;SDS011;4358;42.100;25.222;2022-07-21T00:59:05;11.90;;;10.70;;
8640;SDS011;4358;42.100;25.222;2022-07-21T01:01:32;11.57;;;10.00;;
8640;SDS011;4358;42.100;25.222;2022-07-21T01:03:59;8.50;;;7.60;;
8640;SDS011;4358;42.100;25.222;2022-07-21T01:06:26;7.53;;;6.50;;
8640;SDS011;4358;42.100;25.222;2022-07-21T01:08:54;5.77;;;5.27;;
8640;SDS011;4358;42.100;25.222;2022-07-21T01:11:23;8.03;;;5.63;;
8640;SDS011;4358;42.100;25.222;2022-07-21T01:13:51;15.60;;;10.30;;
8640;SDS011;4358;42.100;25.222;2022-07-21T01:16:18;12.10;;;10.90;;
8640;SDS011;4358;42.100;25.222;2022-07-21T01:18:45;15.40;;;11.70;;
8640;SDS011;4358;42.100;25.222;2022-07-21T01:21:18;12.67;;;10.93;;
8640;SDS011;4358;42.100;25.222;2022-07-21T01:23:56;10.23;;;9.33;;
8640;SDS011;4358;42.100;25.222;2022-07-21T01:26:23;10.27;;;9.37;;
8640;SDS011;4358;42.100;25.222;2022-07-21T01:28:50;8.70;;;7.90;;
8640;SDS011;4358;42.100;25.222;2022-07-21T01:31:18;9.03;;;8.13;;
8640;SDS011;4358;42.100;25.222;2022-07-21T01:33:44;9.17;;;8.20;;
8640;SDS011;4358;42.100;25.222;2022-07-21T01:36:11;10.67;;;8.07;;
8640;SDS011;4358;42.100;25.222;2022-07-21T01:38:40;8.63;;;4.70;;
8640;SDS011;4358;42.100;25.222;2022-07-21T01:41:24;8.20;;;3.80;;
8640;SDS011;4358;42.100;25.222;2022-07-21T01:43:59;8.33;;;6.17;;
8640;SDS011;4358;42.100;25.222;2022-07-21T01:46:28;6.30;;;5.17;;
8640;SDS011;4358;42.100;25.222;2022-07-21T01:48:56;7.60;;;4.10;;
8640;SDS011;4358;42.100;25.222;2022-07-21T01:51:23;3.83;;;3.47;;
8640;SDS011;4358;42.100;25.222;2022-07-21T01:53:52;6.33;;;5.80;;
8640;SDS011;4358;42.100;25.222;2022-07-21T01:56:20;11.47;;;10.27;;
8640;SDS011;4358;42.100;25.222;2022-07-21T01:58:48;14.73;;;12.60;;
8640;SDS011;4358;42.100;25.222;2022-07-21T02:01:17;16.07;;;14.63;;
8640;SDS011;4358;42.100;25.222;2022-07-21T02:03:44;15.93;;;14.30;;
8640;SDS011;4358;42.100;25.222;2022-07-21T02:06:12;7.57;;;6.53;;
8640;SDS011;4358;42.100;25.222;2022-07-21T02:08:40;6.70;;;5.07;;
8640;SDS011;4358;42.100;25.222;2022-07-21T02:11:10;4.73;;;4.00;;
8640;SDS011;4358;42.100;25.222;2022-07-21T02:13:37;5.13;;;3.50;;
8640;SDS011;4358;42.100;25.222;2022-07-21T02:16:04;4.20;;;3.37;;
8640;SDS011;4358;42.100;25.222;2022-07-21T02:18:31;4.70;;;3.10;;
8640;SDS011;4358;42.100;25.222;2022-07-21T02:20:58;3.43;;;3.10;;
8640;SDS011;4358;42.100;25.222;2022-07-21T02:23:25;3.80;;;3.50;;
8640;SDS011;4358;42.100;25.222;2022-07-21T02:25:53;4.70;;;3.40;;
8640;SDS011;4358;42.100;25.222;2022-07-21T02:28:22;7.80;;;3.33;;
8640;SDS011;4358;42.100;25.222;2022-07-21T02:30:49;3.50;;;3.17;;
8640;SDS011;4358;42.100;25.222;2022-07-21T02:33:18;4.20;;;3.57;;
8640;SDS011;4358;42.100;25.222;2022-07-21T02:35:45;4.27;;;3.63;;
8640;SDS011;4358;42.100;25.222;2022-07-21T02:38:12;5.03;;;3.90;;
8640;SDS011;4358;42.100;25.222;2022-07-21T02:40:39;4.60;;;3.77;;
8640;SDS011;4358;42.100;25.222;2022-07-21T02:43:06;4.87;;;3.33;;
8640;SDS011;4358;42.100;25.222;2022-07-21T02:45:34;3.57;;;3.27;;
8640;SDS011;4358;42.100;25.222;2022-07-21T02:48:03;3.73;;;3.30;;
8640;SDS011;4358;42.100;25.222;2022-07-21T02:50:32;6.20;;;3.10;;
8640;SDS011;4358;42.100;25.222;2022-07-21T02:53:01;7.07;;;4.60;;
8640;SDS011;4358;42.100;25.222;2022-07-21T02:55:29;10.30;;;9.40;;
8640;SDS011;4358;42.100;25.222;2022-07-21T02:58:02;6.23;;;4.30;;
8640;SDS011;4358;42.100;25.222;2022-07-21T03:00:30;6.70;;;6.00;;
8640;SDS011;4358;42.100;25.222;2022-07-21T03:02:59;6.43;;;5.83;;
8640;SDS011;4358;42.100;25.222;2022-07-21T03:05:26;10.73;;;7.00;;
8640;SDS011;4358;42.100;25.222;2022-07-21T03:07:52;11.00;;;9.80;;
8640;SDS011;4358;42.100;25.222;2022-07-21T03:10:19;13.37;;;8.00;;
8640;SDS011;4358;42.100;25.222;2022-07-21T03:12:46;9.47;;;8.47;;
8640;SDS011;4358;42.100;25.222;2022-07-21T03:15:13;7.83;;;7.00;;
8640;SDS011;4358;42.100;25.222;2022-07-21T03:17:40;10.77;;;5.37;;
8640;SDS011;4358;42.100;25.222;2022-07-21T03:20:09;10.43;;;6.07;;
8640;SDS011;4358;42.100;25.222;2022-07-21T03:22:36;10.43;;;5.80;;
8640;SDS011;4358;42.100;25.222;2022-07-21T03:25:04;9.53;;;6.70;;
8640;SDS011;4358;42.100;25.222;2022-07-21T03:27:31;12.67;;;7.50;;
8640;SDS011;4358;42.100;25.222;2022-07-21T03:30:02;10.27;;;9.27;;
8640;SDS011;4358;42.100;25.222;2022-07-21T03:32:32;5.57;;;3.33;;
8640;SDS011;4358;42.100;25.222;2022-07-21T03:34:59;4.33;;;3.40;;
8640;SDS011;4358;42.100;25.222;2022-07-21T03:37:28;6.40;;;3.27;;
8640;SDS011;4358;42.100;25.222;2022-07-21T03:39:55;8.17;;;3.83;;
8640;SDS011;4358;42.100;25.222;2022-07-21T03:42:22;7.30;;;3.93;;
8640;SDS011;4358;42.100;25.222;2022-07-21T03:44:49;6.37;;;4.13;;
8640;SDS011;4358;42.100;25.222;2022-07-21T03:47:16;4.70;;;3.10;;
8640;SDS011;4358;42.100;25.222;2022-07-21T03:49:43;8.60;;;3.70;;
8640;SDS011;4358;42.100;25.222;2022-07-21T03:52:09;12.20;;;3.97;;
8640;SDS011;4358;42.100;25.222;2022-07-21T03:54:38;9.93;;;3.90;;
8640;SDS011;4358;42.100;25.222;2022-07-21T03:57:04;8.47;;;3.97;;
8640;SDS011;4358;42.100;25.222;2022-07-21T03:59:31;6.37;;;4.83;;
8640;SDS011;4358;42.100;25.222;2022-07-21T04:01:58;8.47;;;4.30;;
8640;SDS011;4358;42.100;25.222;2022-07-21T04:04:25;5.83;;;3.70;;
8640;SDS011;4358;42.100;25.222;2022-07-21T04:06:52;11.73;;;5.70;;
8640;SDS011;4358;42.100;25.222;2022-07-21T04:09:19;10.80;;;5.47;;
8640;SDS011;4358;42.100;25.222;2022-07-21T04:11:47;8.07;;;6.20;;
8640;SDS011;4358;42.100;25.222;2022-07-21T04:14:14;11.30;;;6.80;;
8640;SDS011;4358;42.100;25.222;2022-07-21T04:16:41;17.93;;;7.97;;
8640;SDS011;4358;42.100;25.222;2022-07-21T04:19:08;8.97;;;7.50;;
8640;SDS011;4358;42.100;25.222;2022-07-21T04:21:34;16.07;;;8.30;;
8640;SDS011;4358;42.100;25.222;2022-07-21T04:24:01;9.37;;;8.10;;
8640;SDS011;4358;42.100;25.222;2022-07-21T04:26:28;10.40;;;8.77;;
8640;SDS011;4358;42.100;25.222;2022-07-21T04:28:57;13.23;;;9.77;;
8640;SDS011;4358;42.100;25.222;2022-07-21T04:31:23;13.40;;;10.60;;
8640;SDS011;4358;42.100;25.222;2022-07-21T04:33:50;16.60;;;11.30;;
8640;SDS011;4358;42.100;25.222;2022-07-21T04:36:17;18.57;;;12.07;;
8640;SDS011;4358;42.100;25.222;2022-07-21T04:38:44;23.57;;;19.80;;
8640;SDS011;4358;42.100;25.222;2022-07-21T04:41:11;15.50;;;13.37;;
8640;SDS011;4358;42.100;25.222;2022-07-21T04:43:37;18.03;;;13.33;;
8640;SDS011;4358;42.100;25.222;2022-07-21T04:46:05;17.23;;;13.57;;
8640;SDS011;4358;42.100;25.222;2022-07-21T04:48:33;22.87;;;14.23;;
8640;SDS011;4358;42.100;25.222;2022-07-21T04:50:59;18.23;;;12.43;;
8640;SDS011;4358;42.100;25.222;2022-07-21T04:53:26;21.80;;;12.57;;
8640;SDS011;4358;42.100;25.222;2022-07-21T04:55:53;18.27;;;11.87;;
8640;SDS011;4358;42.100;25.222;2022-07-21T04:58:20;17.70;;;11.27;;
8640;SDS011;4358;42.100;25.222;2022-07-21T05:00:47;14.20;;;10.27;;
8640;SDS011;4358;42.100;25.222;2022-07-21T05:03:15;14.33;;;10.70;;
8640;SDS011;4358;42.100;25.222;2022-07-21T05:05:42;11.53;;;8.73;;
8640;SDS011;4358;42.100;25.222;2022-07-21T05:08:09;11.33;;;8.00;;
8640;SDS011;4358;42.100;25.222;2022-07-21T05:10:36;9.73;;;6.50;;
8640;SDS011;4358;42.100;25.222;2022-07-21T05:13:02;9.37;;;5.70;;
8640;SDS011;4358;42.100;25.222;2022-07-21T05:15:29;7.83;;;6.83;;
8640;SDS011;4358;42.100;25.222;2022-07-21T05:17:56;11.17;;;7.67;;
8640;SDS011;4358;42.100;25.222;2022-07-21T05:20:25;11.67;;;7.50;;
8640;SDS011;4358;42.100;25.222;2022-07-21T05:22:52;10.37;;;7.50;;
8640;SDS011;4358;42.100;25.222;2022-07-21T05:25:19;24.90;;;8.80;;
8640;SDS011;4358;42.100;25.222;2022-07-21T05:27:46;11.10;;;7.20;;
8640;SDS011;4358;42.100;25.222;2022-07-21T05:30:12;11.67;;;7.70;;
8640;SDS011;4358;42.100;25.222;2022-07-21T05:32:39;9.17;;;5.73;;
8640;SDS011;4358;42.100;25.222;2022-07-21T05:35:07;6.00;;;4.60;;
8640;SDS011;4358;42.100;25.222;2022-07-21T05:37:38;7.13;;;4.50;;
8640;SDS011;4358;42.100;25.222;2022-07-21T05:40:06;5.43;;;4.07;;
8640;SDS011;4358;42.100;25.222;2022-07-21T05:42:34;8.83;;;4.50;;
8640;SDS011;4358;42.100;25.222;2022-07-21T05:45:03;9.33;;;4.50;;
8640;SDS011;4358;42.100;25.222;2022-07-21T05:47:30;6.80;;;4.53;;
8640;SDS011;4358;42.100;25.222;2022-07-21T05:49:57;6.20;;;4.47;;
8640;SDS011;4358;42.100;25.222;2022-07-21T05:52:25;9.47;;;5.20;;
8640;SDS011;4358;42.100;25.222;2022-07-21T05:54:53;6.60;;;5.23;;
8640;SDS011;4358;42.100;25.222;2022-07-21T05:57:20;8.97;;;5.00;;
8640;SDS011;4358;42.100;25.222;2022-07-21T05:59:47;7.13;;;5.50;;
8640;SDS011;4358;42.100;25.222;2022-07-21T06:02:14;9.07;;;5.63;;
8640;SDS011;4358;42.100;25.222;2022-07-21T06:04:40;8.23;;;5.40;;
8640;SDS011;4358;42.100;25.222;2022-07-21T06:07:07;6.43;;;5.03;;
8640;SDS011;4358;42.100;25.222;2022-07-21T06:09:34;6.07;;;4.50;;
8640;SDS011;4358;42.100;25.222;2022-07-21T06:12:03;6.27;;;4.37;;
8640;SDS011;4358;42.100;25.222;2022-07-21T06:14:30;5.97;;;3.80;;
8640;SDS011;4358;42.100;25.222;2022-07-21T06:16:57;5.97;;;3.70;;
8640;SDS011;4358;42.100;25.222;2022-07-21T06:19:24;7.80;;;3.90;;
8640;SDS011;4358;42.100;25.222;2022-07-21T06:21:51;6.10;;;3.57;;
8640;SDS011;4358;42.100;25.222;2022-07-21T06:24:17;3.70;;;3.40;;
8640;SDS011;4358;42.100;25.222;2022-07-21T06:26:47;5.93;;;3.63;;
8640;SDS011;4358;42.100;25.222;2022-07-21T06:29:15;5.50;;;3.90;;
8640;SDS011;4358;42.100;25.222;2022-07-21T06:31:42;8.30;;;3.83;;
8640;SDS011;4358;42.100;25.222;2022-07-21T06:34:09;4.83;;;3.40;;
8640;SDS011;4358;42.100;25.222;2022-07-21T06:36:36;8.33;;;4.20;;
8640;SDS011;4358;42.100;25.222;2022-07-21T06:39:03;4.63;;;3.57;;
8640;SDS011;4358;42.100;25.222;2022-07-21T06:41:29;7.03;;;4.03;;
8640;SDS011;4358;42.100;25.222;2022-07-21T06:43:56;6.77;;;3.53;;
8640;SDS011;4358;42.100;25.222;2022-07-21T06:46:25;9.30;;;3.70;;
8640;SDS011;4358;42.100;25.222;2022-07-21T06:48:52;5.93;;;3.40;;
8640;SDS011;4358;42.100;25.222;2022-07-21T06:51:18;4.30;;;3.00;;
8640;SDS011;4358;42.100;25.222;2022-07-21T06:53:45;8.97;;;3.50;;
8640;SDS011;4358;42.100;25.222;2022-07-21T06:56:12;4.20;;;3.40;;
8640;SDS011;4358;42.100;25.222;2022-07-21T06:58:39;4.80;;;3.40;;
8640;SDS011;4358;42.100;25.222;2022-07-21T07:01:06;4.97;;;3.17;;
8640;SDS011;4358;42.100;25.222;2022-07-21T07:03:34;5.33;;;3.20;;
8640;SDS011;4358;42.100;25.222;2022-07-21T07:06:01;8.97;;;3.53;;
8640;SDS011;4358;42.100;25.222;2022-07-21T07:08:29;7.10;;;3.53;;
8640;SDS011;4358;42.100;25.222;2022-07-21T07:10:56;5.43;;;3.33;;
8640;SDS011;4358;42.100;25.222;2022-07-21T07:13:23;5.67;;;3.30;;
8640;SDS011;4358;42.100;25.222;2022-07-21T07:15:49;7.00;;;3.70;;
8640;SDS011;4358;42.100;25.222;2022-07-21T07:18:17;3.43;;;3.23;;
8640;SDS011;4358;42.100;25.222;2022-07-21T07:20:47;3.40;;;3.10;;
8640;SDS011;4358;42.100;25.222;2022-07-21T07:23:14;4.30;;;3.23;;
8640;SDS011;4358;42.100;25.222;2022-07-21T07:25:40;4.90;;;3.43;;
8640;SDS011;4358;42.100;25.222;2022-07-21T07:28:07;6.33;;;3.30;;
8640;SDS011;4358;42.100;25.222;2022-07-21T07:30:35;5.97;;;3.37;;
8640;SDS011;4358;42.100;25.222;2022-07-21T07:33:02;6.70;;;3.63;;
8640;SDS011;4358;42.100;25.222;2022-07-21T07:35:29;6.17;;;3.40;;
8640;SDS011;4358;42.100;25.222;2022-07-21T07:37:57;5.33;;;3.47;;
8640;SDS011;4358;42.100;25.222;2022-07-21T07:40:24;4.23;;;3.47;;
8640;SDS011;4358;42.100;25.222;2022-07-21T07:42:51;3.73;;;3.30;;
8640;SDS011;4358;42.100;25.222;2022-07-21T07:45:18;6.60;;;3.20;;
8640;SDS011;4358;42.100;25.222;2022-07-21T07:47:45;3.60;;;3.30;;
8640;SDS011;4358;42.100;25.222;2022-07-21T07:50:12;4.50;;;3.30;;
8640;SDS011;4358;42.100;25.222;2022-07-21T07:52:40;4.27;;;3.50;;
8640;SDS011;4358;42.100;25.222;2022-07-21T07:55:10;4.13;;;3.53;;
8640;SDS011;4358;42.100;25.222;2022-07-21T07:57:38;5.07;;;3.50;;
8640;SDS011;4358;42.100;25.222;2022-07-21T08:00:07;7.95;;;3.40;;
8640;SDS011;4358;42.100;25.222;2022-07-21T08:02:35;5.97;;;3.47;;
8640;SDS011;4358;42.100;25.222;2022-07-21T08:05:03;5.97;;;3.60;;
8640;SDS011;4358;42.100;25.222;2022-07-21T08:07:30;5.30;;;3.50;;
8640;SDS011;4358;42.100;25.222;2022-07-21T08:09:57;7.10;;;3.95;;
8640;SDS011;4358;42.100;25.222;2022-07-21T08:12:25;5.35;;;3.83;;
8640;SDS011;4358;42.100;25.222;2022-07-21T08:14:52;4.63;;;3.60;;
8640;SDS011;4358;42.100;25.222;2022-07-21T08:17:19;3.88;;;3.10;;
8640;SDS011;4358;42.100;25.222;2022-07-21T08:19:46;6.10;;;3.20;;
8640;SDS011;4358;42.100;25.222;2022-07-21T08:22:13;5.43;;;3.53;;
8640;SDS011;4358;42.100;25.222;2022-07-21T08:24:40;6.75;;;3.58;;
8640;SDS011;4358;42.100;25.222;2022-07-21T08:27:07;7.40;;;3.95;;
8640;SDS011;4358;42.100;25.222;2022-07-21T08:29:35;5.60;;;3.60;;
8640;SDS011;4358;42.100;25.222;2022-07-21T08:32:02;8.82;;;3.90;;
8640;SDS011;4358;42.100;25.222;2022-07-21T08:34:30;6.07;;;3.85;;
8640;SDS011;4358;42.100;25.222;2022-07-21T08:36:57;4.75;;;3.40;;
8640;SDS011;4358;42.100;25.222;2022-07-21T08:39:24;6.50;;;3.55;;
8640;SDS011;4358;42.100;25.222;2022-07-21T08:41:51;4.70;;;3.55;;
8640;SDS011;4358;42.100;25.222;2022-07-21T08:44:19;6.35;;;3.53;;
8640;SDS011;4358;42.100;25.222;2022-07-21T08:46:49;8.93;;;3.85;;
8640;SDS011;4358;42.100;25.222;2022-07-21T08:49:19;4.28;;;3.60;;
8640;SDS011;4358;42.100;25.222;2022-07-21T08:51:47;6.47;;;3.58;;
8640;SDS011;4358;42.100;25.222;2022-07-21T08:54:15;6.57;;;3.22;;
8640;SDS011;4358;42.100;25.222;2022-07-21T08:56:41;9.70;;;3.92;;
8640;SDS011;4358;42.100;25.222;2022-07-21T08:59:08;10.02;;;3.50;;
8640;SDS011;4358;42.100;25.222;2022-07-21T09:01:35;7.28;;;3.50;;
8640;SDS011;4358;42.100;25.222;2022-07-21T09:04:24;3.67;;;3.20;;
8640;SDS011;4358;42.100;25.222;2022-07-21T09:06:53;6.53;;;3.10;;
8640;SDS011;4358;42.100;25.222;2022-07-21T09:09:22;3.83;;;3.00;;
8640;SDS011;4358;42.100;25.222;2022-07-21T09:11:51;4.72;;;3.22;;
8640;SDS011;4358;42.100;25.222;2022-07-21T09:14:20;3.88;;;2.88;;
8640;SDS011;4358;42.100;25.222;2022-07-21T09:16:48;4.22;;;2.80;;
8640;SDS011;4358;42.100;25.222;2022-07-21T09:19:18;5.95;;;3.28;;
8640;SDS011;4358;42.100;25.222;2022-07-21T09:21:48;8.98;;;3.65;;
8640;SDS011;4358;42.100;25.222;2022-07-21T09:24:18;8.10;;;3.20;;
8640;SDS011;4358;42.100;25.222;2022-07-21T09:26:57;5.55;;;3.47;;
8640;SDS011;4358;42.100;25.222;2022-07-21T09:29:26;3.42;;;2.88;;
8640;SDS011;4358;42.100;25.222;2022-07-21T09:31:58;3.00;;;2.70;;
8640;SDS011;4358;42.100;25.222;2022-07-21T09:34:38;3.47;;;3.17;;
8640;SDS011;4358;42.100;25.222;2022-07-21T09:37:07;5.07;;;2.60;;
8640;SDS011;4358;42.100;25.222;2022-07-21T09:39:40;4.38;;;2.65;;
8640;SDS011;4358;42.100;25.222;2022-07-21T09:42:12;3.75;;;3.00;;
8640;SDS011;4358;42.100;25.222;2022-07-21T09:44:44;5.07;;;2.90;;
8640;SDS011;4358;42.100;25.222;2022-07-21T09:47:12;4.25;;;2.63;;
8640;SDS011;4358;42.100;25.222;2022-07-21T09:49:41;3.33;;;2.75;;
8640;SDS011;4358;42.100;25.222;2022-07-21T09:52:24;4.75;;;2.85;;
8640;SDS011;4358;42.100;25.222;2022-07-21T09:54:55;2.92;;;2.72;;
8640;SDS011;4358;42.100;25.222;2022-07-21T09:57:23;4.30;;;2.75;;
8640;SDS011;4358;42.100;25.222;2022-07-21T09:59:50;3.13;;;2.83;;
8640;SDS011;4358;42.100;25.222;2022-07-21T10:02:18;3.35;;;2.83;;
8640;SDS011;4358;42.100;25.222;2022-07-21T10:04:57;5.25;;;2.58;;
8640;SDS011;4358;42.100;25.222;2022-07-21T10:07:27;4.93;;;2.97;;
8640;SDS011;4358;42.100;25.222;2022-07-21T10:09:54;5.70;;;2.70;;
8640;SDS011;4358;42.100;25.222;2022-07-21T10:12:22;3.63;;;2.47;;
8640;SDS011;4358;42.100;25.222;2022-07-21T10:14:49;3.30;;;2.70;;
8640;SDS011;4358;42.100;25.222;2022-07-21T10:17:17;3.25;;;2.33;;
8640;SDS011;4358;42.100;25.222;2022-07-21T10:19:47;4.18;;;2.83;;
8640;SDS011;4358;42.100;25.222;2022-07-21T10:22:40;2.90;;;2.60;;
8640;SDS011;4358;42.100;25.222;2022-07-21T10:25:20;2.85;;;2.53;;
8640;SDS011;4358;42.100;25.222;2022-07-21T10:30:43;2.90;;;2.40;;
8640;SDS011;4358;42.100;25.222;2022-07-21T10:33:12;3.65;;;2.55;;
8640;SDS011;4358;42.100;25.222;2022-07-21T10:35:40;3.72;;;2.75;;
8640;SDS011;4358;42.100;25.222;2022-07-21T10:38:13;6.40;;;2.83;;
8640;SDS011;4358;42.100;25.222;2022-07-21T10:40:52;3.85;;;2.85;;
8640;SDS011;4358;42.100;25.222;2022-07-21T10:43:38;3.58;;;2.80;;
8640;SDS011;4358;42.100;25.222;2022-07-21T10:49:06;4.20;;;2.85;;
8640;SDS011;4358;42.100;25.222;2022-07-21T10:51:35;5.85;;;2.80;;
8640;SDS011;4358;42.100;25.222;2022-07-21T10:54:18;4.22;;;2.90;;
8640;SDS011;4358;42.100;25.222;2022-07-21T10:56:49;3.40;;;3.10;;
8640;SDS011;4358;42.100;25.222;2022-07-21T11:02:48;5.10;;;3.35;;
8640;SDS011;4358;42.100;25.222;2022-07-21T11:05:16;5.05;;;3.00;;
8640;SDS011;4358;42.100;25.222;2022-07-21T11:10:42;3.75;;;2.65;;
8640;SDS011;4358;42.100;25.222;2022-07-21T11:13:10;3.90;;;2.90;;
8640;SDS011;4358;42.100;25.222;2022-07-21T11:15:48;5.10;;;3.22;;
8640;SDS011;4358;42.100;25.222;2022-07-21T11:18:21;4.60;;;3.05;;
8640;SDS011;4358;42.100;25.222;2022-07-21T11:21:06;4.00;;;3.20;;
8640;SDS011;4358;42.100;25.222;2022-07-21T11:23:36;3.42;;;2.90;;
8640;SDS011;4358;42.100;25.222;2022-07-21T11:26:08;4.18;;;3.17;;
8640;SDS011;4358;42.100;25.222;2022-07-21T11:28:37;5.55;;;2.95;;
8640;SDS011;4358;42.100;25.222;2022-07-21T11:31:11;3.40;;;3.10;;
8640;SDS011;4358;42.100;25.222;2022-07-21T11:33:41;4.18;;;3.17;;
8640;SDS011;4358;42.100;25.222;2022-07-21T11:36:08;6.53;;;3.00;;
8640;SDS011;4358;42.100;25.222;2022-07-21T11:38:36;2.80;;;2.60;;
8640;SDS011;4358;42.100;25.222;2022-07-21T11:41:13;3.80;;;3.50;;
8640;SDS011;4358;42.100;25.222;2022-07-21T11:43:42;4.28;;;3.03;;
8640;SDS011;4358;42.100;25.222;2022-07-21T11:46:10;2.97;;;2.58;;
8640;SDS011;4358;42.100;25.222;2022-07-21T11:48:37;4.18;;;2.90;;
8640;SDS011;4358;42.100;25.222;2022-07-21T11:51:05;3.65;;;3.15;;
8640;SDS011;4358;42.100;25.222;2022-07-21T11:53:33;3.60;;;2.70;;
8640;SDS011;4358;42.100;25.222;2022-07-21T11:56:00;3.78;;;2.90;;
8640;SDS011;4358;42.100;25.222;2022-07-21T11:58:28;4.22;;;3.00;;
8640;SDS011;4358;42.100;25.222;2022-07-21T12:01:04;3.28;;;3.00;;
8640;SDS011;4358;42.100;25.222;2022-07-21T12:03:31;4.85;;;2.97;;
8640;SDS011;4358;42.100;25.222;2022-07-21T12:05:59;4.22;;;2.55;;
8640;SDS011;4358;42.100;25.222;2022-07-21T12:08:26;4.13;;;2.90;;
8640;SDS011;4358;42.100;25.222;2022-07-21T12:11:03;4.53;;;2.85;;
8640;SDS011;4358;42.100;25.222;2022-07-21T12:13:44;4.35;;;3.08;;
8640;SDS011;4358;42.100;25.222;2022-07-21T12:16:18;3.78;;;3.17;;
8640;SDS011;4358;42.100;25.222;2022-07-21T12:18:45;3.33;;;2.90;;
8640;SDS011;4358;42.100;25.222;2022-07-21T12:21:12;6.20;;;3.10;;
8640;SDS011;4358;42.100;25.222;2022-07-21T12:23:39;3.05;;;2.75;;
8640;SDS011;4358;42.100;25.222;2022-07-21T12:26:06;4.30;;;2.90;;
8640;SDS011;4358;42.100;25.222;2022-07-21T12:28:48;4.05;;;2.85;;
8640;SDS011;4358;42.100;25.222;2022-07-21T12:31:19;4.70;;;3.13;;
8640;SDS011;4358;42.100;25.222;2022-07-21T12:33:48;5.95;;;4.65;;
8640;SDS011;4358;42.100;25.222;2022-07-21T12:36:16;3.33;;;3.03;;
8640;SDS011;4358;42.100;25.222;2022-07-21T12:38:46;3.80;;;2.90;;
8640;SDS011;4358;42.100;25.222;2022-07-21T12:41:16;5.82;;;3.60;;
8640;SDS011;4358;42.100;25.222;2022-07-21T12:43:52;3.63;;;3.03;;
8640;SDS011;4358;42.100;25.222;2022-07-21T12:46:20;4.03;;;2.80;;
8640;SDS011;4358;42.100;25.222;2022-07-21T12:48:53;3.53;;;3.00;;
8640;SDS011;4358;42.100;25.222;2022-07-21T12:51:29;4.65;;;3.10;;
8640;SDS011;4358;42.100;25.222;2022-07-21T12:53:56;4.97;;;3.35;;
8640;SDS011;4358;42.100;25.222;2022-07-21T12:56:23;3.63;;;3.00;;
8640;SDS011;4358;42.100;25.222;2022-07-21T12:58:54;3.45;;;3.15;;
8640;SDS011;4358;42.100;25.222;2022-07-21T13:01:22;5.38;;;3.17;;
8640;SDS011;4358;42.100;25.222;2022-07-21T13:03:50;6.05;;;2.88;;
8640;SDS011;4358;42.100;25.222;2022-07-21T13:06:18;5.95;;;3.03;;
8640;SDS011;4358;42.100;25.222;2022-07-21T13:08:46;3.53;;;3.22;;
8640;SDS011;4358;42.100;25.222;2022-07-21T13:11:14;4.43;;;3.00;;
8640;SDS011;4358;42.100;25.222;2022-07-21T13:13:43;4.90;;;3.00;;
8640;SDS011;4358;42.100;25.222;2022-07-21T13:16:13;4.90;;;3.10;;
8640;SDS011;4358;42.100;25.222;2022-07-21T13:18:40;3.72;;;3.10;;
8640;SDS011;4358;42.100;25.222;2022-07-21T13:21:08;4.38;;;3.10;;
8640;SDS011;4358;42.100;25.222;2022-07-21T13:23:34;3.83;;;2.92;;
8640;SDS011;4358;42.100;25.222;2022-07-21T13:26:01;3.67;;;3.17;;
8640;SDS011;4358;42.100;25.222;2022-07-21T13:28:28;3.35;;;2.67;;
8640;SDS011;4358;42.100;25.222;2022-07-21T13:30:55;3.17;;;2.83;;
8640;SDS011;4358;42.100;25.222;2022-07-21T13:33:24;6.10;;;3.42;;
8640;SDS011;4358;42.100;25.222;2022-07-21T13:35:50;5.65;;;3.83;;
8640;SDS011;4358;42.100;25.222;2022-07-21T13:38:17;3.90;;;2.90;;
8640;SDS011;4358;42.100;25.222;2022-07-21T13:40:44;3.65;;;2.90;;
8640;SDS011;4358;42.100;25.222;2022-07-21T13:43:11;6.32;;;4.45;;
8640;SDS011;4358;42.100;25.222;2022-07-21T13:45:40;7.05;;;3.20;;
8640;SDS011;4358;42.100;25.222;2022-07-21T13:48:07;3.63;;;2.88;;
8640;SDS011;4358;42.100;25.222;2022-07-21T13:50:35;7.20;;;3.35;;
8640;SDS011;4358;42.100;25.222;2022-07-21T13:53:03;6.05;;;3.22;;
8640;SDS011;4358;42.100;25.222;2022-07-21T13:55:30;3.53;;;3.08;;
8640;SDS011;4358;42.100;25.222;2022-07-21T13:57:57;4.63;;;4.22;;
8640;SDS011;4358;42.100;25.222;2022-07-21T14:00:23;5.85;;;4.43;;
8640;SDS011;4358;42.100;25.222;2022-07-21T14:02:50;5.00;;;3.50;;
8640;SDS011;4358;42.100;25.222;2022-07-21T14:05:17;4.57;;;3.97;;
8640;SDS011;4358;42.100;25.222;2022-07-21T14:07:46;8.75;;;3.55;;
8640;SDS011;4358;42.100;25.222;2022-07-21T14:10:13;4.55;;;2.92;;
8640;SDS011;4358;42.100;25.222;2022-07-21T14:12:39;4.82;;;3.20;;
8640;SDS011;4358;42.100;25.222;2022-07-21T14:15:07;5.70;;;3.33;;
8640;SDS011;4358;42.100;25.222;2022-07-21T14:17:34;3.85;;;3.38;;
8640;SDS011;4358;42.100;25.222;2022-07-21T14:20:01;5.43;;;3.22;;
8640;SDS011;4358;42.100;25.222;2022-07-21T14:22:29;6.07;;;3.35;;
8640;SDS011;4358;42.100;25.222;2022-07-21T14:24:57;4.38;;;3.17;;
8640;SDS011;4358;42.100;25.222;2022-07-21T14:27:42;3.65;;;2.90;;
8640;SDS011;4358;42.100;25.222;2022-07-21T14:30:09;5.80;;;3.30;;
8640;SDS011;4358;42.100;25.222;2022-07-21T14:32:36;4.25;;;3.10;;
8640;SDS011;4358;42.100;25.222;2022-07-21T14:35:03;4.55;;;3.40;;
8640;SDS011;4358;42.100;25.222;2022-07-21T14:37:31;4.55;;;3.30;;
8640;SDS011;4358;42.100;25.222;2022-07-21T14:39:59;6.82;;;3.20;;
8640;SDS011;4358;42.100;25.222;2022-07-21T14:42:26;3.28;;;2.90;;
8640;SDS011;4358;42.100;25.222;2022-07-21T14:44:54;8.55;;;3.30;;
8640;SDS011;4358;42.100;25.222;2022-07-21T14:47:21;3.78;;;2.92;;
8640;SDS011;4358;42.100;25.222;2022-07-21T14:49:48;5.38;;;3.05;;
8640;SDS011;4358;42.100;25.222;2022-07-21T14:52:15;6.15;;;3.28;;
8640;SDS011;4358;42.100;25.222;2022-07-21T14:54:42;3.33;;;3.03;;
8640;SDS011;4358;42.100;25.222;2022-07-21T14:57:11;7.68;;;3.10;;
8640;SDS011;4358;42.100;25.222;2022-07-21T14:59:38;5.18;;;3.40;;
8640;SDS011;4358;42.100;25.222;2022-07-21T15:02:05;6.10;;;3.20;;
8640;SDS011;4358;42.100;25.222;2022-07-21T15:04:32;3.83;;;3.42;;
8640;SDS011;4358;42.100;25.222;2022-07-21T15:06:58;6.13;;;3.10;;
8640;SDS011;4358;42.100;25.222;2022-07-21T15:09:26;4.57;;;3.42;;
8640;SDS011;4358;42.100;25.222;2022-07-21T15:11:52;6.28;;;3.20;;
8640;SDS011;4358;42.100;25.222;2022-07-21T15:14:20;5.35;;;3.22;;
8640;SDS011;4358;42.100;25.222;2022-07-21T15:16:47;6.07;;;3.00;;